createdAt,value
2023-09-21T00:02:05.863Z,2.82
2023-09-21T00:04:38.471Z,3.01
2023-09-21T00:07:11.679Z,2.74
2023-09-21T00:09:44.075Z,2.71
2023-09-21T00:12:16.399Z,2.72
2023-09-21T00:14:49.037Z,2.66
2023-09-21T00:17:24.623Z,2.94
2023-09-21T00:19:57.458Z,2.91
2023-09-21T00:22:29.914Z,2.71
2023-09-21T00:25:04.637Z,2.76
2023-09-21T00:27:37.034Z,2.74
2023-09-21T00:30:10.687Z,2.79
2023-09-21T00:32:46.426Z,2.97
2023-09-21T00:35:20.074Z,2.89
2023-09-21T00:37:52.460Z,2.87
2023-09-21T00:40:26.426Z,2.99
2023-09-21T00:42:59.122Z,2.88
2023-09-21T00:45:31.705Z,2.81
2023-09-21T00:48:10.766Z,2.88
2023-09-21T00:50:46.392Z,2.81
2023-09-21T00:53:20.626Z,2.76
2023-09-21T00:55:58.295Z,2.86
2023-09-21T00:58:32.791Z,2.74
2023-09-21T01:01:07.079Z,2.77
2023-09-21T01:03:44.828Z,2.80
2023-09-21T01:06:19.834Z,2.87
2023-09-21T01:08:52.915Z,2.78
2023-09-21T01:11:26.593Z,2.87
2023-09-21T01:13:59.095Z,2.76
2023-09-21T01:16:31.616Z,2.88
2023-09-21T01:19:06.712Z,2.87
2023-09-21T01:21:44.892Z,3.01
2023-09-21T01:24:23.909Z,3.05
2023-09-21T01:26:56.760Z,2.76
2023-09-21T01:29:31.294Z,3.04
2023-09-21T01:32:04.343Z,3.01
2023-09-21T01:34:37.045Z,2.71
2023-09-21T01:37:09.767Z,2.83
2023-09-21T01:39:45.142Z,2.82
2023-09-21T01:42:17.533Z,2.98
2023-09-21T01:44:50.170Z,2.74
2023-09-21T01:47:22.607Z,2.81
2023-09-21T01:49:55.249Z,2.69
2023-09-21T01:52:28.764Z,2.79
2023-09-21T01:55:07.809Z,2.81
2023-09-21T01:57:40.075Z,2.87
2023-09-21T02:00:22.761Z,2.79
2023-09-21T02:02:55.884Z,2.93
2023-09-21T02:05:29.242Z,2.70
2023-09-21T02:08:01.556Z,2.85
2023-09-21T02:10:36.715Z,2.91
2023-09-21T02:13:10.236Z,2.89
2023-09-21T02:15:45.182Z,2.78
2023-09-21T02:18:17.544Z,2.57
2023-09-21T02:20:52.717Z,2.90
2023-09-21T02:23:27.562Z,2.77
2023-09-21T02:26:03.275Z,2.59
2023-09-21T02:28:35.589Z,2.66
2023-09-21T02:31:08.074Z,2.88
2023-09-21T02:33:43.481Z,2.71
2023-09-21T02:36:21.705Z,2.88
2023-09-21T02:38:54.299Z,2.91
2023-09-21T02:41:29.280Z,2.83
2023-09-21T02:44:01.743Z,2.86
2023-09-21T02:46:34.121Z,2.90
2023-09-21T02:49:07.529Z,2.75
2023-09-21T02:51:40.485Z,2.94
2023-09-21T02:54:14.597Z,2.71
2023-09-21T02:56:51.414Z,2.98
2023-09-21T02:59:24.333Z,2.92
2023-09-21T03:01:57.421Z,2.96
2023-09-21T03:04:29.644Z,2.82
2023-09-21T03:07:02.051Z,2.96
2023-09-21T03:09:34.316Z,2.78
2023-09-21T03:12:09.932Z,2.82
2023-09-21T03:14:42.247Z,2.81
2023-09-21T03:17:15.953Z,2.94
2023-09-21T03:19:50.384Z,2.86
2023-09-21T03:22:23.143Z,2.74
2023-09-21T03:24:58.434Z,2.67
2023-09-21T03:27:33.278Z,2.89
2023-09-21T03:30:07.223Z,2.63
2023-09-21T03:32:40.396Z,2.76
2023-09-21T03:35:13.471Z,2.61
2023-09-21T03:37:46.854Z,2.76
2023-09-21T03:40:19.656Z,2.86
2023-09-21T03:42:56.495Z,2.72
2023-09-21T03:45:29.189Z,2.80
2023-09-21T03:48:07.014Z,2.63
2023-09-21T03:50:39.660Z,2.64
2023-09-21T03:53:12.796Z,2.64
2023-09-21T03:55:47.777Z,2.70
2023-09-21T03:58:22.803Z,2.70
2023-09-21T04:00:55.554Z,2.92
2023-09-21T04:03:28.061Z,2.66
2023-09-21T04:06:08.118Z,2.74
2023-09-21T04:08:40.585Z,2.77
2023-09-21T04:11:13.371Z,2.74
2023-09-21T04:13:48.374Z,2.69
2023-09-21T04:16:20.713Z,2.76
2023-09-21T04:18:53.017Z,2.61
2023-09-21T04:21:25.532Z,3.04
2023-09-21T04:23:57.943Z,2.86
2023-09-21T04:26:30.284Z,2.70
2023-09-21T04:29:04.872Z,2.68
2023-09-21T04:31:37.279Z,2.77
2023-09-21T04:34:09.702Z,2.41
2023-09-21T04:36:41.972Z,2.77
2023-09-21T04:39:16.580Z,2.86
2023-09-21T04:41:49.352Z,2.79
2023-09-21T04:44:24.295Z,2.88
2023-09-21T04:46:57.426Z,2.75
2023-09-21T04:49:29.717Z,3.04
2023-09-21T04:52:05.468Z,2.69
2023-09-21T04:54:37.706Z,2.74
2023-09-21T04:57:10.377Z,2.89
2023-09-21T04:59:45.297Z,2.82
2023-09-21T05:02:17.683Z,2.78
2023-09-21T05:04:52.376Z,3.14
2023-09-21T05:07:25.416Z,2.87
2023-09-21T05:09:57.886Z,2.91
2023-09-21T05:12:30.220Z,2.95
2023-09-21T05:15:08.300Z,2.81
2023-09-21T05:17:41.477Z,3.03
2023-09-21T05:20:14.485Z,2.93
2023-09-21T05:22:46.909Z,3.03
2023-09-21T05:25:19.316Z,2.88
2023-09-21T05:27:51.584Z,2.96
2023-09-21T05:30:29.936Z,3.11
2023-09-21T05:33:04.321Z,3.08
2023-09-21T05:35:36.980Z,3.09
2023-09-21T05:38:09.344Z,3.12
2023-09-21T05:40:41.841Z,2.99
2023-09-21T05:43:14.553Z,2.91
2023-09-21T05:45:49.802Z,2.84
2023-09-21T05:48:22.144Z,3.01
2023-09-21T05:50:55.409Z,2.91
2023-09-21T05:53:27.810Z,3.11
2023-09-21T05:56:00.132Z,3.04
2023-09-21T05:58:33.656Z,3.03
2023-09-21T06:01:09.388Z,2.97
2023-09-21T06:03:42.598Z,3.07
2023-09-21T06:06:16.208Z,3.32
2023-09-21T06:08:50.084Z,3.15
2023-09-21T06:11:22.369Z,3.31
2023-09-21T06:13:55.164Z,3.34
2023-09-21T06:16:30.537Z,3.26
2023-09-21T06:19:02.877Z,3.04
2023-09-21T06:21:36.970Z,2.91
2023-09-21T06:24:10.210Z,3.54
2023-09-21T06:26:43.168Z,3.24
2023-09-21T06:29:15.448Z,3.46
2023-09-21T06:32:09.388Z,3.16
2023-09-21T06:34:44.381Z,2.96
2023-09-21T06:37:19.826Z,3.26
2023-09-21T06:39:52.062Z,3.29
2023-09-21T06:42:24.551Z,3.07
2023-09-21T06:44:57.585Z,3.09
2023-09-21T06:47:32.522Z,3.40
2023-09-21T06:50:04.779Z,3.14
2023-09-21T06:52:37.323Z,3.23
2023-09-21T06:55:10.016Z,3.21
2023-09-21T06:57:42.330Z,3.06
2023-09-21T07:00:16.419Z,3.43
2023-09-21T07:02:51.474Z,3.25
2023-09-21T07:05:24.119Z,3.04
2023-09-21T07:07:56.519Z,3.29
2023-09-21T07:10:29.046Z,3.39
2023-09-21T07:13:01.376Z,2.96
2023-09-21T07:15:33.668Z,2.16
2023-09-21T07:18:10.850Z,1.41
2023-09-21T07:20:43.265Z,1.19
2023-09-21T07:23:15.549Z,1.16
2023-09-21T07:25:47.810Z,1.09
2023-09-21T07:28:20.220Z,1.04
2023-09-21T07:30:56.483Z,0.99
2023-09-21T07:33:33.656Z,0.91
2023-09-21T07:36:07.687Z,0.71
2023-09-21T07:38:40.076Z,0.78
2023-09-21T07:41:14.589Z,0.89
2023-09-21T07:43:47.006Z,0.98
2023-09-21T07:46:19.519Z,0.82
2023-09-21T07:48:54.916Z,0.89
2023-09-21T07:51:27.905Z,0.96
2023-09-21T07:54:02.022Z,0.94
2023-09-21T07:56:37.612Z,0.91
2023-09-21T07:59:11.291Z,0.89
2023-09-21T08:01:43.537Z,0.91
2023-09-21T08:04:21.754Z,0.85
2023-09-21T08:06:57.924Z,0.83
2023-09-21T08:09:37.484Z,0.87
2023-09-21T08:12:10.809Z,0.96
2023-09-21T08:14:43.109Z,0.96
2023-09-21T08:17:15.386Z,0.98
2023-09-21T08:19:50.794Z,1.01
2023-09-21T08:22:23.514Z,1.02
2023-09-21T08:24:56.904Z,0.95
2023-09-21T08:27:30.751Z,0.86
2023-09-21T08:30:05.406Z,0.91
2023-09-21T08:32:38.034Z,1.04
2023-09-21T08:35:17.659Z,1.04
2023-09-21T08:37:51.637Z,0.99
2023-09-21T08:40:27.344Z,1.03
2023-09-21T08:43:01.220Z,1.01
2023-09-21T08:45:34.654Z,0.98
2023-09-21T08:48:07.886Z,1.01
2023-09-21T08:50:45.461Z,0.94
2023-09-21T08:53:24.669Z,1.13
2023-09-21T08:56:03.693Z,1.12
2023-09-21T08:58:42.922Z,1.08
2023-09-21T09:01:17.247Z,1.20
2023-09-21T09:03:50.845Z,0.96
2023-09-21T09:06:26.112Z,1.16
2023-09-21T09:08:58.568Z,1.24
2023-09-21T09:11:46.540Z,1.11
2023-09-21T09:14:21.036Z,1.19
2023-09-21T09:16:53.451Z,1.15
2023-09-21T09:19:25.816Z,1.06
2023-09-21T09:22:01.977Z,1.09
2023-09-21T09:24:36.645Z,0.98
2023-09-21T09:27:10.117Z,1.16
2023-09-21T09:29:53.250Z,1.02
2023-09-21T09:32:30.411Z,1.03
2023-09-21T09:35:03.598Z,1.15
2023-09-21T09:37:38.915Z,1.31
2023-09-21T09:40:14.097Z,1.36
2023-09-21T09:42:47.998Z,1.34
2023-09-21T09:45:23.550Z,1.41
2023-09-21T09:47:59.217Z,1.33
2023-09-21T09:50:37.285Z,1.20
2023-09-21T09:53:15.019Z,1.29
2023-09-21T09:55:50.429Z,1.26
2023-09-21T09:58:26.395Z,1.25
2023-09-21T10:01:02.260Z,1.29
2023-09-21T10:03:36.843Z,1.26
2023-09-21T10:06:11.386Z,1.41
2023-09-21T10:08:47.977Z,1.42
2023-09-21T10:11:23.196Z,1.47
2023-09-21T10:13:57.898Z,1.44
2023-09-21T10:16:32.834Z,1.28
2023-09-21T10:19:07.596Z,1.17
2023-09-21T10:21:44.532Z,1.38
2023-09-21T10:24:27.709Z,1.27
2023-09-21T10:27:04.756Z,1.06
2023-09-21T10:29:41.087Z,1.21
2023-09-21T10:32:13.436Z,1.49
2023-09-21T10:34:50.344Z,1.54
2023-09-21T10:37:30.746Z,1.44
2023-09-21T10:40:09.585Z,1.54
2023-09-21T10:42:42.608Z,1.76
2023-09-21T10:45:15.382Z,1.63
2023-09-21T10:47:53.638Z,1.65
2023-09-21T10:50:27.986Z,1.61
2023-09-21T10:53:02.258Z,1.49
2023-09-21T10:55:37.930Z,1.41
2023-09-21T10:58:10.279Z,1.33
2023-09-21T11:00:42.775Z,1.17
2023-09-21T11:03:17.328Z,1.29
2023-09-21T11:05:50.021Z,1.11
2023-09-21T11:08:23.040Z,0.99
2023-09-21T11:10:58.028Z,0.99
2023-09-21T11:13:30.688Z,1.24
2023-09-21T11:16:03.301Z,1.07
2023-09-21T11:18:35.807Z,1.13
2023-09-21T11:21:10.263Z,1.01
2023-09-21T11:23:44.937Z,1.20
2023-09-21T11:26:20.589Z,1.21
2023-09-21T11:28:59.818Z,1.21
2023-09-21T11:31:32.678Z,1.18
2023-09-21T11:34:09.226Z,1.13
2023-09-21T11:36:41.952Z,1.21
2023-09-21T11:39:15.604Z,1.09
2023-09-21T11:41:52.626Z,1.02
2023-09-21T11:44:26.613Z,1.15
2023-09-21T11:47:03.046Z,1.11
2023-09-21T11:49:43.090Z,1.19
2023-09-21T11:52:17.728Z,1.14
2023-09-21T11:54:50.461Z,1.24
2023-09-21T11:57:25.674Z,1.16
2023-09-21T12:00:00.492Z,1.20
2023-09-21T12:02:33.057Z,1.30
2023-09-21T12:05:12.441Z,1.34
2023-09-21T12:07:45.479Z,1.44
2023-09-21T12:10:18.053Z,1.34
2023-09-21T12:12:53.549Z,1.42
2023-09-21T12:15:25.984Z,1.06
2023-09-21T12:17:58.356Z,1.09
2023-09-21T12:20:30.692Z,1.04
2023-09-21T12:23:03.666Z,1.00
2023-09-21T12:25:39.089Z,1.03
2023-09-21T12:28:13.977Z,1.00
2023-09-21T12:30:48.847Z,1.16
2023-09-21T12:33:41.180Z,1.21
2023-09-21T12:36:26.904Z,1.44
2023-09-21T12:39:10.725Z,1.58
2023-09-21T12:41:44.767Z,1.35
2023-09-21T12:44:20.332Z,1.40
2023-09-21T12:46:52.646Z,1.36
2023-09-21T12:49:25.221Z,1.49
2023-09-21T12:51:58.275Z,1.52
2023-09-21T12:54:33.635Z,1.40
2023-09-21T12:57:06.204Z,1.57
2023-09-21T12:59:41.241Z,1.44
2023-09-21T13:02:16.356Z,1.59
2023-09-21T13:04:48.999Z,1.61
2023-09-21T13:07:21.386Z,1.77
2023-09-21T13:09:53.983Z,1.69
2023-09-21T13:12:26.838Z,1.64
2023-09-21T13:15:02.411Z,1.84
2023-09-21T13:17:36.270Z,1.86
2023-09-21T13:20:10.329Z,1.74
2023-09-21T13:22:42.962Z,1.77
2023-09-21T13:25:15.566Z,1.56
2023-09-21T13:27:48.131Z,1.51
2023-09-21T13:30:23.248Z,1.46
2023-09-21T13:32:55.826Z,1.42
2023-09-21T13:35:28.133Z,1.65
2023-09-21T13:38:01.401Z,1.64
2023-09-21T13:40:33.672Z,1.89
2023-09-21T13:43:06.744Z,1.93
2023-09-21T13:45:43.239Z,1.85
2023-09-21T13:48:16.856Z,1.97
2023-09-21T13:50:51.584Z,2.27
2023-09-21T13:53:24.144Z,2.19
2023-09-21T13:55:56.460Z,2.36
2023-09-21T13:58:28.721Z,2.20
2023-09-21T14:01:04.692Z,2.23
2023-09-21T14:03:39.589Z,1.87
2023-09-21T14:06:12.262Z,1.65
2023-09-21T14:08:44.824Z,1.81
2023-09-21T14:11:18.321Z,1.91
2023-09-21T14:13:50.762Z,2.26
2023-09-21T14:16:26.044Z,2.79
2023-09-21T14:18:58.570Z,2.90
2023-09-21T14:21:32.804Z,3.13
2023-09-21T14:24:05.287Z,2.91
2023-09-21T14:26:37.661Z,2.90
2023-09-21T14:29:10.005Z,2.89
2023-09-21T14:31:45.308Z,3.24
2023-09-21T14:34:17.788Z,2.51
2023-09-21T14:36:50.341Z,2.61
2023-09-21T14:39:22.686Z,2.52
2023-09-21T14:41:55.341Z,2.38
2023-09-21T14:44:27.595Z,2.14
2023-09-21T14:47:02.537Z,2.09
2023-09-21T14:49:34.972Z,2.32
2023-09-21T14:52:07.312Z,2.16
2023-09-21T14:54:39.625Z,2.31
2023-09-21T14:57:12.133Z,2.11
2023-09-21T14:59:45.264Z,2.35
2023-09-21T15:02:20.179Z,2.14
2023-09-21T15:04:52.563Z,2.16
2023-09-21T15:07:24.918Z,2.26
2023-09-21T15:09:59.022Z,2.34
2023-09-21T15:12:31.595Z,2.31
2023-09-21T15:15:04.165Z,2.37
2023-09-21T15:17:39.625Z,2.35
2023-09-21T15:20:13.868Z,2.21
2023-09-21T15:22:46.253Z,2.06
2023-09-21T15:25:18.648Z,2.31
2023-09-21T15:27:51.051Z,2.13
2023-09-21T15:30:23.475Z,2.14
2023-09-21T15:32:58.852Z,2.39
2023-09-21T15:35:32.566Z,2.29
2023-09-21T15:38:04.866Z,2.40
2023-09-21T15:40:37.204Z,2.14
2023-09-21T15:43:09.684Z,2.11
2023-09-21T15:45:42.522Z,1.84
2023-09-21T15:48:18.120Z,1.78
2023-09-21T15:50:50.659Z,1.77
2023-09-21T15:53:23.942Z,1.72
2023-09-21T15:55:57.845Z,1.77
2023-09-21T15:58:31.478Z,1.78
2023-09-21T16:01:03.987Z,1.71
2023-09-21T16:03:39.589Z,1.84
2023-09-21T16:06:12.084Z,1.81
2023-09-21T16:08:44.881Z,2.21
2023-09-21T16:11:18.768Z,2.14
2023-09-21T16:13:51.989Z,2.38
2023-09-21T16:16:24.434Z,2.16
2023-09-21T16:18:59.331Z,1.86
2023-09-21T16:21:34.038Z,2.20
2023-09-21T16:24:06.958Z,2.09
2023-09-21T16:26:39.308Z,2.14
2023-09-21T16:29:11.894Z,2.17
2023-09-21T16:31:44.549Z,2.11
2023-09-21T16:34:20.708Z,1.84
2023-09-21T16:36:53.018Z,1.86
2023-09-21T16:39:26.043Z,2.11
2023-09-21T16:41:58.465Z,2.26
2023-09-21T16:44:31.979Z,2.09
2023-09-21T16:47:04.271Z,2.21
2023-09-21T16:49:39.216Z,2.58
2023-09-21T16:52:11.512Z,2.66
2023-09-21T16:54:44.800Z,2.41
2023-09-21T16:57:17.104Z,2.53
2023-09-21T16:59:49.382Z,2.51
2023-09-21T17:02:23.163Z,2.49
2023-09-21T17:04:58.120Z,2.60
2023-09-21T17:07:30.491Z,2.52
2023-09-21T17:10:02.900Z,4.28
2023-09-21T17:12:35.513Z,9.65
2023-09-21T17:15:08.143Z,7.40
2023-09-21T17:17:42.275Z,7.43
2023-09-21T17:20:18.629Z,5.55
2023-09-21T17:22:51.218Z,4.77
2023-09-21T17:25:24.654Z,6.21
2023-09-21T17:27:56.891Z,6.45
2023-09-21T17:30:29.939Z,5.72
2023-09-21T17:33:02.386Z,3.66
2023-09-21T17:35:37.609Z,3.11
2023-09-21T17:38:12.066Z,3.14
2023-09-21T17:40:44.469Z,3.26
2023-09-21T17:43:16.961Z,2.97
2023-09-21T17:45:49.344Z,3.32
2023-09-21T17:48:29.507Z,3.19
2023-09-21T17:51:07.332Z,3.19
2023-09-21T17:53:40.253Z,3.64
2023-09-21T17:56:12.637Z,3.66
2023-09-21T17:58:45.221Z,3.70
2023-09-21T18:01:18.003Z,3.41
2023-09-21T18:03:51.379Z,5.04
2023-09-21T18:06:26.624Z,5.61
2023-09-21T18:08:59.049Z,4.69
2023-09-21T18:11:31.421Z,4.76
2023-09-21T18:14:03.720Z,4.65
2023-09-21T18:16:36.329Z,4.88
2023-09-21T18:19:08.930Z,4.78
2023-09-21T18:21:45.390Z,5.03
2023-09-21T18:24:18.100Z,5.13
2023-09-21T18:26:50.374Z,6.66
2023-09-21T18:29:22.981Z,8.03
2023-09-21T18:31:58.745Z,7.49
2023-09-21T18:34:31.159Z,6.89
2023-09-21T18:37:06.375Z,6.42
2023-09-21T18:39:38.683Z,6.19
2023-09-21T18:42:11.149Z,6.24
2023-09-21T18:44:43.451Z,5.99
2023-09-21T18:47:15.745Z,6.15
2023-09-21T18:49:48.767Z,6.41
2023-09-21T18:52:23.695Z,6.16
2023-09-21T18:54:55.976Z,6.92
2023-09-21T18:57:28.662Z,8.56
2023-09-21T19:00:00.950Z,8.61
2023-09-21T19:02:34.336Z,8.48
2023-09-21T19:05:06.919Z,9.38
2023-09-21T19:07:41.878Z,8.46
2023-09-21T19:10:15.192Z,8.97
2023-09-21T19:12:47.869Z,9.32
2023-09-21T19:15:21.235Z,10.33
2023-09-21T19:17:53.620Z,10.52
2023-09-21T19:20:25.928Z,10.14
2023-09-21T19:23:03.036Z,10.22
2023-09-21T19:25:38.141Z,10.04
2023-09-21T19:28:10.692Z,10.19
2023-09-21T19:30:45.249Z,10.46
2023-09-21T19:33:17.937Z,10.51
2023-09-21T19:35:51.054Z,11.19
2023-09-21T19:38:26.155Z,11.06
2023-09-21T19:40:58.540Z,12.14
2023-09-21T19:43:31.726Z,12.46
2023-09-21T19:46:07.025Z,11.07
2023-09-21T19:48:39.974Z,10.90
2023-09-21T19:51:12.590Z,10.32
2023-09-21T19:53:48.470Z,11.59
2023-09-21T19:56:20.939Z,10.76
2023-09-21T19:58:53.260Z,11.54
2023-09-21T20:01:28.504Z,11.38
2023-09-21T20:04:01.081Z,11.49
2023-09-21T20:06:33.542Z,11.64
2023-09-21T20:09:09.075Z,11.76
2023-09-21T20:11:41.760Z,12.59
2023-09-21T20:14:14.204Z,12.14
2023-09-21T20:16:46.751Z,12.43
2023-09-21T20:19:19.056Z,12.91
2023-09-21T20:21:51.809Z,12.24
2023-09-21T20:24:26.737Z,11.96
2023-09-21T20:26:59.343Z,12.81
2023-09-21T20:29:32.763Z,12.41
2023-09-21T20:32:09.370Z,12.06
2023-09-21T20:34:41.840Z,12.96
2023-09-21T20:37:15.969Z,12.92
2023-09-21T20:39:51.478Z,12.01
2023-09-21T20:42:24.003Z,11.78
2023-09-21T20:44:56.391Z,12.59
2023-09-21T20:47:29.165Z,12.04
2023-09-21T20:50:01.489Z,11.39
2023-09-21T20:52:34.549Z,11.91
2023-09-21T20:55:10.384Z,11.45
2023-09-21T20:57:42.688Z,11.27
2023-09-21T21:00:16.435Z,11.37
2023-09-21T21:02:52.400Z,10.80
2023-09-21T21:05:24.970Z,10.81
2023-09-21T21:07:57.283Z,11.09
2023-09-21T21:10:33.007Z,10.10
2023-09-21T21:13:05.486Z,10.66
2023-09-21T21:15:37.875Z,10.09
2023-09-21T21:18:10.800Z,9.64
2023-09-21T21:20:45.723Z,9.40
2023-09-21T21:23:18.282Z,9.17
2023-09-21T21:25:53.199Z,8.63
2023-09-21T21:28:25.504Z,7.99
2023-09-21T21:30:57.815Z,8.70
2023-09-21T21:33:30.435Z,8.01
2023-09-21T21:36:02.782Z,8.28
2023-09-21T21:38:35.063Z,7.84
2023-09-21T21:41:10.909Z,6.79
2023-09-21T21:43:43.606Z,6.94
2023-09-21T21:46:16.165Z,6.86
2023-09-21T21:48:48.559Z,6.74
2023-09-21T21:51:20.886Z,6.76
2023-09-21T21:53:53.260Z,6.99
2023-09-21T21:56:28.115Z,6.62
2023-09-21T21:59:01.584Z,6.66
2023-09-21T22:01:34.042Z,6.72
2023-09-21T22:04:06.546Z,7.01
2023-09-21T22:06:38.983Z,7.47
2023-09-21T22:09:11.842Z,7.30
2023-09-21T22:11:49.056Z,7.55
2023-09-21T22:14:21.567Z,7.82
2023-09-21T22:16:54.026Z,8.64
2023-09-21T22:19:26.435Z,8.67
2023-09-21T22:21:58.825Z,9.78
2023-09-21T22:24:31.817Z,10.26
2023-09-21T22:27:08.730Z,10.86
2023-09-21T22:29:38.458Z,10.87
2023-09-21T22:32:12.157Z,11.31
2023-09-21T22:34:44.527Z,11.96
2023-09-21T22:37:16.820Z,12.69
2023-09-21T22:39:49.126Z,12.51
2023-09-21T22:42:26.645Z,12.61
2023-09-21T22:45:05.351Z,13.20
2023-09-21T22:47:37.754Z,13.14
2023-09-21T22:50:15.325Z,12.80
2023-09-21T22:52:49.527Z,13.29
2023-09-21T22:55:22.663Z,13.51
2023-09-21T22:57:57.934Z,13.59
2023-09-21T23:00:30.731Z,13.96
2023-09-21T23:03:04.640Z,13.64
2023-09-21T23:05:37.154Z,13.91
2023-09-21T23:08:10.372Z,14.33
2023-09-21T23:10:42.823Z,14.64
2023-09-21T23:13:18.370Z,14.46
2023-09-21T23:15:51.099Z,15.19
2023-09-21T23:18:24.398Z,15.09
2023-09-21T23:20:56.704Z,14.26
2023-09-21T23:23:29.226Z,14.39
2023-09-21T23:26:04.733Z,13.91
2023-09-21T23:28:40.050Z,10.68
2023-09-21T23:31:12.734Z,9.59
2023-09-21T23:33:47.200Z,7.89
2023-09-21T23:36:19.802Z,7.95
2023-09-21T23:38:52.174Z,7.50
2023-09-21T23:41:27.538Z,6.47
2023-09-21T23:44:02.571Z,6.32
2023-09-21T23:46:38.849Z,6.42
2023-09-21T23:49:11.919Z,5.61
2023-09-21T23:51:44.245Z,4.89
2023-09-21T23:54:17.199Z,4.39
2023-09-21T23:56:49.453Z,3.91
2023-09-21T23:59:24.373Z,3.96
